Terminal Aerodrome Forecast
Issued by NWS Charleston, WV

Current Version | Previous Version | Text Only | Print | Product List | Glossary Off
Versions: 1 2 3 4 5 6 7 8 9 10 11 12 13 14 15 16 17 18 19 20 21 22 23 24 25

000
FTUS41 KRLX 301400 AAB
TAFPKB
TAF AMD
KPKB 301444Z 3015/3112 28011KT P6SM OVC040
     FM301600 31010G15KT P6SM BKN025
     FM302300 32008KT P6SM BKN020
     FM310400 31004KT P6SM BKN120=

USA.gov is the U.S. government's official web portal to all federal, state and local government web resources and services.